Terminal Aerodrome Forecast
Issued by NWS

Home | Current Version | Previous Version | Text Only | Print | Product List | Glossary On
Versions: 1 2 3 4 5 6 7 8 9 10 11 12 13 14 15 16 17 18 19 20 21
152
FTUS44 KSJT 171150
TAFJCT
TAF
KJCT 171150Z 1712/1812 18005KT P6SM SCT035 BKN080
     FM171500 18009KT P6SM SCT040 BKN250=

USA.gov is the U.S. government's official web portal to all federal, state and local government web resources and services.